Golden Gate, Florida
Current Conditions -  °F | °C
As of 7:53 PM on Wednesday 22 Oct 2014 (Local Time) from KAPF Reporting Station
Clear Clear  
Wind Chill: 79°   Ceiling: Unl
Heat Index: 82°   Visibility: 10mi
Dew Point: 70°   Wind: 3mph
Humidity: 74%   Direction: 120°ESE
Pressure: 29.92"   Gusts: NA
Location:  26.18°N, 81.7°W
Report Text: KAPF 222353Z 12003KT 10SM CLR 26/21 A2992 RMK AO2 SLP132 T02610211 10283 20261 53005
Loading
Personal Weather Stations






























Interactive Weather Map
Tropical Storm Tracking
New forecast layout! Learn more

10-Day Weather Forecast

Advertisements
Track Severe Weather on mobile